Wetterdaten: Woche 14.03.11 - 20.03.11 (KW11)
Datum Zeit Temperatur Luftfeuchte Luftdruck Niederschlag Windrichtung Sonnenschein Solar Wind
14.03.2011 00:00 5,5 C 87 % 1009,1 hPa 0,0 l/m N 0,00 h 0 W/m 1,3 km/h (1 Bft)
14.03.2011 01:00 5,2 C 90 % 1009,6 hPa 0,0 l/m S 0,00 h 0 W/m 1,7 km/h (1 Bft)
14.03.2011 02:00 4,9 C 91 % 1010,1 hPa 0,0 l/m S 0,00 h 0 W/m 1,5 km/h (1 Bft)
14.03.2011 03:00 5,1 C 92 % 1010,3 hPa 0,0 l/m S 0,00 h 0 W/m 4,1 km/h (1 Bft)
14.03.2011 04:00 5,2 C 90 % 1011,1 hPa 0,0 l/m N 0,00 h 0 W/m 1,2 km/h (1 Bft)
14.03.2011 05:00 4,7 C 93 % 1012,2 hPa 0,0 l/m N 0,00 h 0 W/m 1,2 km/h (1 Bft)
14.03.2011 06:00 4,5 C 94 % 1012,9 hPa 0,0 l/m N 0,00 h 6 W/m 1,5 km/h (1 Bft)
14.03.2011 07:00 4,4 C 94 % 1013,4 hPa 0,0 l/m N 0,00 h 47 W/m 0,0 km/h (0 Bft)
14.03.2011 08:00 6,0 C 90 % 1014,0 hPa 0,0 l/m N 0,00 h 100 W/m 0,0 km/h (0 Bft)
14.03.2011 09:00 9,1 C 79 % 1014,4 hPa 0,0 l/m W-NW 0,92 h 368 W/m 2,7 km/h (1 Bft)
14.03.2011 10:00 12,1 C 64 % 1014,6 hPa 0,0 l/m NW 1,00 h 538 W/m 10,6 km/h (2 Bft)
14.03.2011 11:00 13,2 C 60 % 1014,5 hPa 0,0 l/m W-NW 0,58 h 496 W/m 8,8 km/h (2 Bft)
14.03.2011 12:00 14,3 C 55 % 1014,3 hPa 0,0 l/m NW 0,50 h 469 W/m 8,2 km/h (2 Bft)
14.03.2011 13:00 15,4 C 51 % 1013,8 hPa 0,0 l/m NW 0,67 h 455 W/m 11,0 km/h (2 Bft)
14.03.2011 14:00 15,0 C 51 % 1013,5 hPa 0,0 l/m O 0,42 h 313 W/m 9,4 km/h (2 Bft)
14.03.2011 15:00 15,0 C 50 % 1013,7 hPa 0,0 l/m NO 0,42 h 229 W/m 7,4 km/h (2 Bft)
14.03.2011 16:00 14,8 C 50 % 1013,6 hPa 0,0 l/m O-NO 0,08 h 155 W/m 8,3 km/h (2 Bft)
14.03.2011 17:00 14,2 C 53 % 1013,7 hPa 0,0 l/m O-NO 0,25 h 63 W/m 11,0 km/h (2 Bft)
14.03.2011 18:00 12,3 C 61 % 1014,1 hPa 0,0 l/m O-NO 0,00 h 11 W/m 6,5 km/h (2 Bft)
14.03.2011 19:00 9,6 C 71 % 1014,5 hPa 0,0 l/m N 0,00 h 0 W/m 1,9 km/h (1 Bft)
14.03.2011 20:00 8,1 C 77 % 1014,7 hPa 0,0 l/m O-NO 0,00 h 0 W/m 3,3 km/h (1 Bft)
14.03.2011 21:00 7,1 C 81 % 1014,7 hPa 0,0 l/m O-NO 0,00 h 0 W/m 3,5 km/h (1 Bft)
14.03.2011 22:00 6,7 C 82 % 1014,6 hPa 0,0 l/m O-NO 0,00 h 0 W/m 4,0 km/h (1 Bft)
14.03.2011 23:00 6,1 C 84 % 1014,6 hPa 0,0 l/m NO 0,00 h 0 W/m 5,3 km/h (1 Bft)
15.03.2011 00:00 5,6 C 86 % 1014,5 hPa 0,0 l/m N 0,00 h 0 W/m 5,5 km/h (1 Bft)
15.03.2011 01:00 5,1 C 88 % 1014,3 hPa 0,0 l/m N 0,00 h 0 W/m 3,9 km/h (1 Bft)
15.03.2011 02:00 4,5 C 89 % 1014,3 hPa 0,0 l/m N 0,00 h 0 W/m 5,2 km/h (1 Bft)
15.03.2011 03:00 4,0 C 91 % 1014,0 hPa 0,0 l/m N 0,00 h 0 W/m 6,0 km/h (2 Bft)
15.03.2011 04:00 3,3 C 92 % 1013,7 hPa 0,0 l/m N 0,00 h 0 W/m 4,3 km/h (1 Bft)
15.03.2011 05:00 2,9 C 94 % 1013,5 hPa 0,0 l/m N 0,00 h 0 W/m 5,2 km/h (1 Bft)
15.03.2011 06:00 2,9 C 94 % 1013,3 hPa 0,0 l/m N 0,00 h 12 W/m 6,9 km/h (2 Bft)
15.03.2011 07:00 3,3 C 94 % 1013,4 hPa 0,0 l/m N 0,00 h 53 W/m 7,9 km/h (2 Bft)
15.03.2011 08:00 4,8 C 91 % 1013,3 hPa 0,0 l/m N 0,33 h 173 W/m 8,7 km/h (2 Bft)
15.03.2011 09:00 6,4 C 85 % 1013,2 hPa 0,0 l/m NO 0,67 h 296 W/m 9,0 km/h (2 Bft)
15.03.2011 10:00 8,2 C 79 % 1012,8 hPa 0,0 l/m NO 0,75 h 421 W/m 10,6 km/h (2 Bft)
15.03.2011 11:00 11,5 C 67 % 1012,0 hPa 0,0 l/m O-NO 1,00 h 660 W/m 13,6 km/h (3 Bft)
15.03.2011 12:00 13,9 C 58 % 1011,2 hPa 0,0 l/m O-NO 1,00 h 644 W/m 14,6 km/h (3 Bft)
15.03.2011 13:00 15,6 C 50 % 1010,1 hPa 0,0 l/m NO 0,83 h 489 W/m 16,1 km/h (3 Bft)
15.03.2011 14:00 17,3 C 42 % 1009,2 hPa 0,0 l/m O 1,00 h 474 W/m 18,4 km/h (3 Bft)
15.03.2011 15:00 17,5 C 41 % 1008,8 hPa 0,0 l/m O 1,00 h 358 W/m 20,6 km/h (4 Bft)
15.03.2011 16:00 17,3 C 41 % 1008,4 hPa 0,0 l/m O 0,50 h 173 W/m 18,0 km/h (3 Bft)
15.03.2011 17:00 16,0 C 45 % 1008,6 hPa 0,0 l/m O-NO 0,00 h 57 W/m 12,2 km/h (2 Bft)
15.03.2011 18:00 14,0 C 53 % 1008,6 hPa 0,0 l/m NO 0,00 h 11 W/m 8,0 km/h (2 Bft)
15.03.2011 19:00 12,4 C 58 % 1008,5 hPa 0,0 l/m NO 0,00 h 0 W/m 7,1 km/h (2 Bft)
15.03.2011 20:00 11,8 C 60 % 1008,5 hPa 0,0 l/m NO 0,00 h 0 W/m 7,1 km/h (2 Bft)
15.03.2011 21:00 10,8 C 64 % 1008,5 hPa 0,0 l/m NO 0,00 h 0 W/m 6,4 km/h (2 Bft)
15.03.2011 22:00 9,6 C 69 % 1008,0 hPa 0,0 l/m N-NW 0,00 h 0 W/m 6,0 km/h (2 Bft)
15.03.2011 23:00 8,6 C 73 % 1007,5 hPa 0,0 l/m N 0,00 h 0 W/m 4,8 km/h (1 Bft)
16.03.2011 00:00 7,5 C 78 % 1006,8 hPa 0,0 l/m N 0,00 h 0 W/m 6,9 km/h (2 Bft)
16.03.2011 01:00 6,6 C 82 % 1006,3 hPa 0,0 l/m N 0,00 h 0 W/m 6,5 km/h (2 Bft)
16.03.2011 02:00 5,7 C 86 % 1005,9 hPa 0,0 l/m N 0,00 h 0 W/m 7,2 km/h (2 Bft)
16.03.2011 03:00 5,6 C 88 % 1004,8 hPa 0,0 l/m N 0,00 h 0 W/m 8,3 km/h (2 Bft)
16.03.2011 04:00 5,7 C 88 % 1004,0 hPa 0,0 l/m N-NO 0,00 h 0 W/m 10,3 km/h (2 Bft)
16.03.2011 05:00 5,9 C 88 % 1003,3 hPa 0,0 l/m NO 0,00 h 0 W/m 13,3 km/h (3 Bft)
16.03.2011 06:00 5,8 C 89 % 1003,0 hPa 0,0 l/m N-NO 0,00 h 7 W/m 14,2 km/h (3 Bft)
16.03.2011 07:00 5,9 C 89 % 1002,8 hPa 0,0 l/m NO 0,00 h 21 W/m 15,4 km/h (3 Bft)
16.03.2011 08:00 6,2 C 89 % 1003,1 hPa 0,0 l/m N-NO 0,00 h 57 W/m 11,7 km/h (2 Bft)
16.03.2011 09:00 6,9 C 87 % 1002,9 hPa 0,0 l/m NO 0,00 h 164 W/m 15,3 km/h (3 Bft)
16.03.2011 10:00 7,9 C 83 % 1002,3 hPa 0,0 l/m NO 0,25 h 289 W/m 16,2 km/h (3 Bft)
16.03.2011 11:00 9,4 C 78 % 1002,4 hPa 0,0 l/m NO 0,17 h 230 W/m 13,2 km/h (3 Bft)
16.03.2011 12:00 9,9 C 75 % 1002,1 hPa 0,0 l/m O-NO 0,00 h 154 W/m 14,9 km/h (3 Bft)
16.03.2011 13:00 9,9 C 75 % 1001,3 hPa 0,0 l/m NO 0,00 h 110 W/m 17,2 km/h (3 Bft)
16.03.2011 14:00 9,9 C 76 % 1000,8 hPa 0,0 l/m NO 0,00 h 84 W/m 12,2 km/h (2 Bft)
16.03.2011 15:00 10,0 C 76 % 1000,6 hPa 0,0 l/m NO 0,00 h 68 W/m 11,0 km/h (2 Bft)
16.03.2011 16:00 9,7 C 79 % 1000,4 hPa 0,0 l/m NO 0,00 h 26 W/m 9,5 km/h (2 Bft)
16.03.2011 17:00 8,5 C 90 % 1000,5 hPa 1,0 l/m N-NO 0,00 h 11 W/m 5,5 km/h (1 Bft)
16.03.2011 18:00 7,8 C 95 % 1000,3 hPa 0,6 l/m N-NO 0,00 h 0 W/m 6,4 km/h (2 Bft)
16.03.2011 19:00 7,7 C 96 % 1000,3 hPa 0,0 l/m N-NO 0,00 h 0 W/m 6,3 km/h (2 Bft)
16.03.2011 20:00 7,6 C 97 % 1000,5 hPa 0,0 l/m N-NW 0,00 h 0 W/m 10,3 km/h (2 Bft)
16.03.2011 21:00 7,6 C 97 % 1000,7 hPa 0,0 l/m SO 0,00 h 0 W/m 4,8 km/h (1 Bft)
16.03.2011 22:00 7,3 C 97 % 1000,4 hPa 0,0 l/m N-NW 0,00 h 0 W/m 3,6 km/h (1 Bft)
16.03.2011 23:00 7,4 C 98 % 1000,7 hPa 0,0 l/m N 0,00 h 0 W/m 0,0 km/h (0 Bft)
17.03.2011 00:00 7,2 C 98 % 1000,0 hPa 0,0 l/m N-NW 0,00 h 0 W/m 4,1 km/h (1 Bft)
17.03.2011 01:00 6,6 C 98 % 1000,0 hPa 0,0 l/m N 0,00 h 0 W/m 1,7 km/h (1 Bft)
17.03.2011 02:00 6,6 C 99 % 999,9 hPa 0,0 l/m NW 0,00 h 0 W/m 1,1 km/h (0 Bft)
17.03.2011 03:00 6,8 C 99 % 999,6 hPa 0,0 l/m N 0,00 h 0 W/m 0,7 km/h (0 Bft)
17.03.2011 04:00 7,0 C 99 % 999,3 hPa 0,0 l/m N 0,00 h 0 W/m 2,1 km/h (1 Bft)
17.03.2011 05:00 7,2 C 98 % 999,3 hPa 0,0 l/m N 0,00 h 0 W/m 0,0 km/h (0 Bft)
17.03.2011 06:00 7,1 C 98 % 999,8 hPa 0,0 l/m N 0,00 h 0 W/m 2,0 km/h (1 Bft)
17.03.2011 07:00 7,0 C 98 % 1000,3 hPa 0,0 l/m NW 0,00 h 8 W/m 5,6 km/h (1 Bft)
17.03.2011 08:00 6,8 C 97 % 1000,8 hPa 0,0 l/m N-NO 0,00 h 32 W/m 9,0 km/h (2 Bft)
17.03.2011 09:00 7,0 C 97 % 1001,2 hPa 0,2 l/m N 0,00 h 52 W/m 7,0 km/h (2 Bft)
17.03.2011 10:00 7,2 C 96 % 1001,8 hPa 0,0 l/m N-NW 0,00 h 67 W/m 7,6 km/h (2 Bft)
17.03.2011 11:00 7,3 C 96 % 1002,3 hPa 0,6 l/m N-NW 0,00 h 110 W/m 9,9 km/h (2 Bft)
17.03.2011 12:00 7,7 C 95 % 1002,9 hPa 0,6 l/m W-NW 0,00 h 182 W/m 12,9 km/h (3 Bft)
17.03.2011 13:00 7,5 C 95 % 1003,5 hPa 0,8 l/m NW 0,00 h 119 W/m 12,2 km/h (2 Bft)
17.03.2011 14:00 7,4 C 96 % 1004,2 hPa 0,8 l/m NW 0,00 h 53 W/m 7,5 km/h (2 Bft)
17.03.2011 15:00 7,2 C 96 % 1005,0 hPa 1,2 l/m N-NW 0,00 h 44 W/m 6,8 km/h (2 Bft)
17.03.2011 16:00 7,1 C 97 % 1005,9 hPa 0,4 l/m NW 0,00 h 15 W/m 4,5 km/h (1 Bft)
17.03.2011 17:00 7,0 C 96 % 1007,0 hPa 0,4 l/m W-NW 0,00 h 8 W/m 12,2 km/h (2 Bft)
17.03.2011 18:00 6,3 C 95 % 1008,0 hPa 0,0 l/m W-NW 0,00 h 5 W/m 11,9 km/h (2 Bft)
17.03.2011 19:00 6,2 C 94 % 1009,0 hPa 0,0 l/m W-NW 0,00 h 0 W/m 11,9 km/h (2 Bft)
17.03.2011 20:00 6,1 C 95 % 1010,0 hPa 0,4 l/m W-NW 0,00 h 0 W/m 7,2 km/h (2 Bft)
17.03.2011 21:00 6,1 C 95 % 1011,0 hPa 0,4 l/m W-NW 0,00 h 0 W/m 8,7 km/h (2 Bft)
17.03.2011 22:00 6,0 C 96 % 1011,9 hPa 0,2 l/m W-NW 0,00 h 0 W/m 8,4 km/h (2 Bft)
17.03.2011 23:00 6,0 C 95 % 1012,4 hPa 0,0 l/m W 0,00 h 0 W/m 12,3 km/h (3 Bft)
18.03.2011 00:00 6,0 C 94 % 1013,2 hPa 0,0 l/m W-NW 0,00 h 0 W/m 14,8 km/h (3 Bft)
18.03.2011 01:00 5,9 C 94 % 1013,9 hPa 0,0 l/m W-NW 0,00 h 0 W/m 13,8 km/h (3 Bft)
18.03.2011 02:00 5,8 C 93 % 1014,6 hPa 0,0 l/m W 0,00 h 0 W/m 15,3 km/h (3 Bft)
18.03.2011 03:00 5,8 C 94 % 1015,1 hPa 0,2 l/m W-NW 0,00 h 0 W/m 15,3 km/h (3 Bft)
18.03.2011 04:00 5,8 C 93 % 1016,1 hPa 0,0 l/m SW 0,00 h 0 W/m 7,4 km/h (2 Bft)
18.03.2011 05:00 5,6 C 94 % 1017,2 hPa 0,0 l/m SW 0,00 h 0 W/m 8,7 km/h (2 Bft)
18.03.2011 06:00 5,3 C 94 % 1018,1 hPa 0,0 l/m W-SW 0,00 h 7 W/m 11,8 km/h (2 Bft)
18.03.2011 07:00 5,2 C 95 % 1019,1 hPa 0,0 l/m W 0,00 h 44 W/m 11,8 km/h (2 Bft)
18.03.2011 08:00 5,3 C 94 % 1020,0 hPa 0,0 l/m W-SW 0,00 h 58 W/m 10,9 km/h (2 Bft)
18.03.2011 09:00 5,6 C 93 % 1020,6 hPa 0,0 l/m SW 0,00 h 88 W/m 15,7 km/h (3 Bft)
18.03.2011 10:00 5,7 C 92 % 1021,2 hPa 0,0 l/m W 0,00 h 59 W/m 11,0 km/h (2 Bft)
18.03.2011 11:00 5,8 C 91 % 1021,5 hPa 0,0 l/m W-SW 0,00 h 93 W/m 10,1 km/h (2 Bft)
18.03.2011 12:00 6,2 C 90 % 1021,7 hPa 0,0 l/m W-SW 0,00 h 110 W/m 12,4 km/h (3 Bft)
18.03.2011 13:00 6,7 C 88 % 1021,6 hPa 0,0 l/m SW 0,00 h 144 W/m 12,2 km/h (2 Bft)
18.03.2011 14:00 6,9 C 86 % 1021,7 hPa 0,0 l/m W-SW 0,00 h 100 W/m 15,0 km/h (3 Bft)
18.03.2011 15:00 6,9 C 87 % 1021,8 hPa 0,0 l/m W-SW 0,00 h 53 W/m 10,6 km/h (2 Bft)
18.03.2011 16:00 6,9 C 86 % 1022,0 hPa 0,0 l/m W-NW 0,00 h 46 W/m 8,0 km/h (2 Bft)
18.03.2011 17:00 6,8 C 87 % 1022,2 hPa 0,0 l/m W-NW 0,00 h 26 W/m 2,5 km/h (1 Bft)
18.03.2011 18:00 6,4 C 86 % 1022,6 hPa 0,0 l/m N-NW 0,00 h 9 W/m 4,0 km/h (1 Bft)
18.03.2011 19:00 6,0 C 85 % 1022,9 hPa 0,0 l/m N-NW 0,00 h 0 W/m 4,7 km/h (1 Bft)
18.03.2011 20:00 5,5 C 88 % 1023,1 hPa 0,0 l/m N 0,00 h 0 W/m 1,6 km/h (1 Bft)
18.03.2011 21:00 5,3 C 88 % 1023,0 hPa 0,0 l/m N 0,00 h 0 W/m 1,1 km/h (0 Bft)
18.03.2011 22:00 5,1 C 91 % 1022,8 hPa 0,0 l/m N 0,00 h 0 W/m 0,0 km/h (0 Bft)
18.03.2011 23:00 4,9 C 91 % 1022,7 hPa 0,0 l/m N 0,00 h 0 W/m 0,3 km/h (0 Bft)
19.03.2011 00:00 4,8 C 91 % 1022,8 hPa 0,0 l/m N-NW 0,00 h 0 W/m 1,9 km/h (1 Bft)
19.03.2011 01:00 4,7 C 93 % 1022,8 hPa 0,0 l/m N-NW 0,00 h 0 W/m 3,1 km/h (1 Bft)
19.03.2011 02:00 4,5 C 95 % 1022,5 hPa 0,2 l/m N 0,00 h 0 W/m 2,0 km/h (1 Bft)
19.03.2011 03:00 4,2 C 96 % 1022,2 hPa 0,6 l/m O 0,00 h 0 W/m 3,3 km/h (1 Bft)
19.03.2011 04:00 3,9 C 97 % 1022,2 hPa 0,4 l/m O 0,00 h 0 W/m 10,1 km/h (2 Bft)
19.03.2011 05:00 3,3 C 96 % 1022,4 hPa 0,2 l/m O 0,00 h 0 W/m 12,6 km/h (3 Bft)
19.03.2011 06:00 2,9 C 96 % 1022,6 hPa 0,0 l/m O-SO 0,00 h 5 W/m 9,9 km/h (2 Bft)
19.03.2011 07:00 2,8 C 96 % 1023,1 hPa 0,2 l/m O-NO 0,00 h 12 W/m 10,3 km/h (2 Bft)
19.03.2011 08:00 2,8 C 95 % 1023,7 hPa 0,4 l/m O-NO 0,00 h 36 W/m 13,7 km/h (3 Bft)
19.03.2011 09:00 2,7 C 95 % 1024,5 hPa 0,8 l/m O-NO 0,00 h 69 W/m 16,9 km/h (3 Bft)
19.03.2011 10:00 1,6 C 95 % 1025,6 hPa 1,0 l/m O-NO 0,00 h 93 W/m 15,3 km/h (3 Bft)
19.03.2011 11:00 1,2 C 97 % 1026,2 hPa 1,6 l/m O-NO 0,00 h 117 W/m 13,2 km/h (3 Bft)
19.03.2011 12:00 2,0 C 96 % 1026,6 hPa 0,6 l/m N-NO 0,00 h 151 W/m 10,1 km/h (2 Bft)
19.03.2011 13:00 3,5 C 94 % 1026,4 hPa 0,0 l/m NO 0,00 h 212 W/m 14,1 km/h (3 Bft)
19.03.2011 14:00 4,6 C 85 % 1026,6 hPa 0,0 l/m O-NO 0,00 h 195 W/m 16,9 km/h (3 Bft)
19.03.2011 15:00 5,1 C 79 % 1027,1 hPa 0,0 l/m O-NO 0,00 h 139 W/m 17,3 km/h (3 Bft)
19.03.2011 16:00 4,5 C 83 % 1027,6 hPa 0,0 l/m O-NO 0,00 h 64 W/m 15,4 km/h (3 Bft)
19.03.2011 17:00 3,8 C 88 % 1028,4 hPa 0,0 l/m O-NO 0,00 h 38 W/m 12,2 km/h (2 Bft)
19.03.2011 18:00 3,8 C 85 % 1029,1 hPa 0,0 l/m O 0,00 h 12 W/m 6,6 km/h (2 Bft)
19.03.2011 19:00 2,3 C 92 % 1029,8 hPa 0,0 l/m N 0,00 h 0 W/m 2,4 km/h (1 Bft)
19.03.2011 20:00 1,8 C 95 % 1030,2 hPa 0,0 l/m NO 0,00 h 0 W/m 3,5 km/h (1 Bft)
19.03.2011 21:00 2,1 C 91 % 1030,7 hPa 0,0 l/m NO 0,00 h 0 W/m 8,6 km/h (2 Bft)
19.03.2011 22:00 1,6 C 87 % 1031,1 hPa 0,0 l/m N-NO 0,00 h 0 W/m 9,0 km/h (2 Bft)
19.03.2011 23:00 1,0 C 86 % 1031,0 hPa 0,0 l/m NO 0,00 h 0 W/m 9,8 km/h (2 Bft)
20.03.2011 00:00 0,9 C 84 % 1030,8 hPa 0,0 l/m NO 0,00 h 0 W/m 8,4 km/h (2 Bft)
20.03.2011 01:00 -0,1 C 87 % 1031,0 hPa 0,0 l/m O-NO 0,00 h 0 W/m 4,8 km/h (1 Bft)
20.03.2011 02:00 -0,9 C 90 % 1031,1 hPa 0,0 l/m N 0,00 h 0 W/m 5,2 km/h (1 Bft)
20.03.2011 03:00 -1,5 C 92 % 1031,0 hPa 0,0 l/m N 0,00 h 0 W/m 2,0 km/h (1 Bft)
20.03.2011 04:00 -1,7 C 92 % 1030,9 hPa 0,0 l/m N-NO 0,00 h 0 W/m 3,5 km/h (1 Bft)
20.03.2011 05:00 -1,8 C 92 % 1031,0 hPa 0,0 l/m N-NO 0,00 h 0 W/m 7,5 km/h (2 Bft)
20.03.2011 06:00 -2,0 C 92 % 1031,2 hPa 0,0 l/m N-NO 0,00 h 13 W/m 8,2 km/h (2 Bft)
20.03.2011 07:00 -1,4 C 92 % 1031,5 hPa 0,0 l/m NO 0,00 h 46 W/m 8,3 km/h (2 Bft)
20.03.2011 08:00 -0,0 C 89 % 1031,7 hPa 0,0 l/m O-NO 0,58 h 245 W/m 12,5 km/h (3 Bft)
20.03.2011 09:00 2,1 C 84 % 1032,1 hPa 0,0 l/m NO 1,00 h 463 W/m 13,7 km/h (3 Bft)
20.03.2011 10:00 4,2 C 69 % 1032,4 hPa 0,0 l/m O-NO 0,92 h 595 W/m 18,1 km/h (3 Bft)
20.03.2011 11:00 5,8 C 57 % 1032,4 hPa 0,0 l/m O-NO 1,00 h 684 W/m 21,3 km/h (4 Bft)
20.03.2011 12:00 7,3 C 51 % 1032,0 hPa 0,0 l/m O-SO 1,00 h 707 W/m 20,2 km/h (4 Bft)
20.03.2011 13:00 8,3 C 43 % 1031,5 hPa 0,0 l/m O-NO 1,00 h 672 W/m 20,1 km/h (4 Bft)
20.03.2011 14:00 9,0 C 37 % 1030,9 hPa 0,0 l/m O-SO 0,92 h 529 W/m 20,0 km/h (4 Bft)
20.03.2011 15:00 9,1 C 38 % 1030,5 hPa 0,0 l/m O-SO 1,00 h 437 W/m 18,0 km/h (3 Bft)
20.03.2011 16:00 8,7 C 39 % 1030,5 hPa 0,0 l/m O-NO 1,00 h 268 W/m 17,0 km/h (3 Bft)
20.03.2011 17:00 7,8 C 43 % 1030,6 hPa 0,0 l/m O-NO 0,17 h 77 W/m 14,2 km/h (3 Bft)
20.03.2011 18:00 6,3 C 51 % 1031,2 hPa 0,0 l/m O-NO 0,00 h 13 W/m 10,3 km/h (2 Bft)
20.03.2011 19:00 4,7 C 58 % 1031,6 hPa 0,0 l/m O-NO 0,00 h 0 W/m 6,1 km/h (2 Bft)
20.03.2011 20:00 2,8 C 66 % 1031,8 hPa 0,0 l/m N 0,00 h 0 W/m 2,9 km/h (1 Bft)
20.03.2011 21:00 1,5 C 73 % 1031,8 hPa 0,0 l/m O-NO 0,00 h 0 W/m 3,2 km/h (1 Bft)
20.03.2011 22:00 0,9 C 77 % 1031,8 hPa 0,0 l/m O-NO 0,00 h 0 W/m 3,6 km/h (1 Bft)
20.03.2011 23:00 0,4 C 80 % 1032,0 hPa 0,0 l/m N 0,00 h 0 W/m 2,4 km/h (1 Bft)
Min-Datum _ 20.03.11 20.03.11 17.03.11 - - - - 14.03.11
_ Min-Zeit 06:25 14:10 04:20 - - - - 00:00
Minimum _ -2,1 C 34 % 999,2 hPa - - - - 0,0 km/h (0 Bft)
Max-Datum _ 15.03.11 17.03.11 20.03.11 19.03.11 - 14.03.11 14.03.11 20.03.11
_ Max-Zeit 15:05 02:15 10:30 11:00 - 09:05 12:10 13:40
Maximum _ 17,8 C 99 % 1032,6 hPa 1,6 l/m - 0,08 h 809 W/m 29,0 km/h
O-SO (5 Bft)
Durchschnitt _ 6,4 C 83 % 1015,4 hPa #13,8 l/m O-NO #20:55 h 177 W/m 8,7 km/h (2 Bft)